Main Content

NOTICE: Although all weather products are taken from the National Weather Service, this data should be used only as a supplement to a formal weather briefing.

Last Updated: Sunday, January 29th, 2023, 11:23 pm
Information on this page is updated every 5 minutes.


METARS

KMDH 300452Z AUTO 34008KT 5SM BR OVC005 M01/M02 A3027 RMK AO2 SLP253 T10111017

KMDH 300352Z AUTO 36009KT 5SM BR OVC005 M01/M02 A3025 RMK AO2 SLP246 T10111017

KMDH 300252Z 35009KT 5SM BR OVC006 M01/M02 A3023 RMK AO2 SLP239 T10111022 58003

KMWA 300455Z AUTO 34004KT 5SM BR OVC004 M01/M01 A3026 RMK AO2 T10081008

KMWA 300435Z AUTO 34005KT 5SM BR OVC004 M01/M01 A3025 RMK AO2 T10081008

KMWA 300415Z AUTO 34005KT 5SM BR OVC006 M01/M01 A3024 RMK AO2 T10071007

KMWA 300355Z AUTO 35007KT 5SM BR OVC006 M01/M01 A3024 RMK AO2 T10061006

KMWA 300335Z AUTO 34003KT 7SM OVC006 00/00 A3024 RMK AO2 T10051005

KMWA 300315Z AUTO 35006KT 7SM OVC006 M01/M01 A3024 RMK AO2 T10061006

KMWA 300255Z AUTO 35005KT 7SM OVC008 M01/M01 A3022 RMK AO2 T10061006

KMWA 300235Z AUTO 35006KT 7SM OVC008 00/00 A3022 RMK AO2 T10051005

KMWA 300215Z AUTO 35004KT 7SM OVC008 00/00 A3024 RMK AO2 T10051005

KCGI 300453Z AUTO 01012KT 4SM BR OVC007 M01/M02 A3025 RMK AO2 SLP246 T10061017

KCGI 300353Z AUTO 02008KT 5SM BR OVC008 M01/M02 A3023 RMK AO2 SLP237 T10061017

KCGI 300314Z AUTO 36011G18KT 7SM OVC009 00/M02 A3023 RMK AO2 T00001017

KCGI 300253Z AUTO 01013G20KT 8SM OVC010 00/M02 A3021 RMK AO2 SLP232 T00001017

KSAR 300435Z AUTO 35008KT 4SM BR OVC005 M03/M03 A3027 RMK AO2 T10281028

KSAR 300415Z AUTO 34006KT 4SM BR OVC005 M03/M03 A3027 RMK AO2 T10291030

KSAR 300355Z AUTO 35006KT 5SM BR OVC005 M03/M03 A3028 RMK AO2 T10271030

KSAR 300335Z AUTO 35007KT 7SM OVC005 M03/M03 A3027 RMK AO2 T10261030

KSAR 300315Z AUTO 35007KT 7SM OVC005 M03/M03 A3026 RMK AO2 T10261029

KSAR 300255Z AUTO 36005KT 7SM OVC005 M03/M03 A3026 RMK AO2 T10261030

KSAR 300235Z AUTO 36009KT 7SM OVC005 M03/M03 A3026 RMK AO2 T10261030

KSAR 300215Z AUTO 34008KT 10SM OVC005 M03/M03 A3026 RMK AO2 T10271030

KFAM 300456Z AUTO 36008KT 2 1/2SM BR OVC004 M04/M05 A3025 RMK AO2 VIS 1 3/4V3

KFAM 300416Z AUTO 34007KT 3SM BR OVC004 M04/M05 A3025 RMK AO2 FZRANO

KFAM 300408Z AUTO 35007KT 2 1/2SM BR OVC004 M04/M05 A3024 RMK AO2 FZRANO

KFAM 300356Z AUTO 34006KT 3SM BR OVC004 M04/M05 A3024 RMK AO2 SLP262 T10441050

KFAM 300256Z AUTO 36006KT 5SM BR OVC004 M04/M05 A3024 RMK AO2 SLP260 T10391050

KFAM 300252Z AUTO 34009KT 5SM BR OVC004 M04/M05 A3023 RMK AO2 FZRANO

KMVN 300456Z AUTO 01005KT 6SM BR OVC006 M01/M01 A3024 RMK AO2 SLP249 T10061011

KMVN 300356Z AUTO VRB05KT 5SM BR OVC006 M01/M01 A3024 RMK AO2 SLP249 T10061011

KMVN 300256Z AUTO VRB04KT 6SM BR OVC006 M01/M01 A3024 RMK AO2 SLP248 T10061011

KHSB 300427Z AUTO 00000KT 2 1/2SM BR OVC006 00/00 A3024 RMK AO2

KCIR 300455Z AUTO 03006KT 2SM OVC005 01/00 A3023 RMK AO2 T00050000

KCIR 300435Z AUTO 05006KT 2SM OVC005 01/00 A3022 RMK AO2 T00050000

KCIR 300415Z AUTO 03006KT 3SM OVC005 01/00 A3023 RMK AO2 T00050000

KPAH 300511Z AUTO 02008KT 2 1/2SM BR OVC005 01/00 A3020 RMK AO2 CIG 004V009

KPAH 300501Z AUTO 36007KT 3SM BR OVC005 01/01 A3020 RMK AO2 T00110006

KPAH 300453Z 01006KT 3SM BR OVC004 01/00 A3020 RMK AO2 CIG 003V009 SLP229

KPAH 300440Z 01005KT 3SM BR OVC004 01/00 A3020 RMK AO2 T00110000

KPOF 300453Z AUTO 01009KT 5SM BR OVC007 M01/M02 A3023 RMK AO2 CIG 006V012 SLP239

KFAM 300456Z AUTO 36008KT 2 1/2SM BR OVC004 M04/M05 A3025 RMK AO2 VIS 1 3/4V3

KFAM 300416Z AUTO 34007KT 3SM BR OVC004 M04/M05 A3025 RMK AO2 FZRANO

KBLV 300457Z 34012KT 9SM FZDZ OVC006 M03/M05 A3028 RMK FZDZB56 SLP263 P0000

KSUS 300500Z 36010KT 3SM -FZRA BR BKN008 OVC013 M05/M06 A3031 RMK AO2

KSUS 300454Z 01008KT 2 1/2SM UP BR OVC008 M05/M06 A3030 RMK AO2

KSUS 300432Z 35008KT 2 1/2SM -SN BR OVC007 M05/M06 A3030 RMK AO2

KSUS 300424Z 35010KT 3SM -FZRA BR OVC007 M05/M06 A3030 RMK AO2 UPB12E18FZRAB18

KCPS 300453Z AUTO 01011KT 4SM BR OVC008 M04/M05 A3029 RMK AO2 FZRAB43E52 CIG

KCPS 300443Z AUTO 35009KT 4SM -FZRA BR OVC008 M04/M05 A3029 RMK AO2 FZRAB43 CIG

KSTL 300451Z 34013KT 3SM -FZDZ BR OVC006 M04/M07 A3030 RMK AO2 SLP273 P0000

KSTL 300418Z 34010KT 4SM -FZDZ BR OVC006 M04/M07 A3030 RMK AO2 P0000 T10441067 $

KTBN 300455Z AUTO 35005KT 9SM +FZDZ BR OVC004 M06/M07 A3024 RMK AO2 SLP259 P0000

KTBN 300452Z AUTO 35006KT 9SM +FZDZ BR OVC004 M06/M07 A3024 RMK AO2 SLP259

KTBN 300450Z AUTO 34007KT 9SM FZDZ BR OVC004 M06/M07 A3024 RMK AO2 SLP259

KTBN 300445Z AUTO 36006KT 9SM +FZDZ BR OVC004 M06/M07 A3024 RMK AO2 SLP259

KVIH 300503Z AUTO 36009KT 2 1/2SM -FZRA BR OVC003 M06/M07 A3027 RMK AO2 P0000

KVIH 300453Z AUTO 01007KT 2 1/2SM -FZRA BR OVC005 M06/M07 A3026 RMK AO2 FZRAB49

KVIH 300450Z AUTO 01009KT 2 1/2SM -FZRA BR OVC005 M06/M07 A3026 RMK AO2 FZRAB49

KVIH 300446Z AUTO 01009KT 3SM BR OVC005 M06/M07 A3026 RMK AO2 I1001 T10611072

KMTO 300507Z AUTO 36011KT 4SM BR OVC005 M02/M03 A3022 RMK AO2 T10171028

KMTO 300453Z AUTO 36012KT 4SM BR OVC004 M02/M03 A3023 RMK AO2 CIG 004V008 SLP244

KFWC 300455Z AUTO 34006KT 5SM BR OVC005 00/00 A3022 RMK AO1 T00001005

KFWC 300435Z AUTO 35007KT 5SM BR OVC005 00/00 A3022 RMK AO1 T00011005

KFWC 300415Z AUTO 35008KT 5SM BR OVC005 00/00 A3022 RMK AO1 T00011005

KCUL 300454Z AUTO 34008KT 4SM BR OVC004 02/01 A3021 RMK AO2

KCUL 300437Z AUTO 35007KT 4SM BR OVC004 02/01 A3021 RMK AO2

KEVV 300454Z 36004KT 3SM BR OVC004 03/02 A3020 RMK AO2 SLP230 T00280017

KOWB 300453Z AUTO 35004KT 1SM -RA BR OVC003 03/03 A3019 RMK AO2 RAB51 P0000

KEHR 300444Z AUTO 33004KT 2 1/2SM BR OVC004 02/02 A3021 RMK AO2 FZRANO

KEHR 300434Z AUTO 34004KT 3SM BR OVC004 02/02 A3021 RMK AO2 FZRANO

KCEY 300455Z AUTO 35008KT 2 1/2SM BR OVC003 03/03 A3017 RMK A01

KCEY 300435Z AUTO 36009KT 2 1/2SM BR OVC003 03/03 A3018 RMK A01

KCEY 300415Z AUTO 35007KT 1 3/4SM BR OVC003 03/03 A3019 RMK A01

KHOP 300455Z AUTO 35006KT 6SM BR OVC003 06/06 A3015 RMK AO2 SLP214 T00580057

KMKL 300453Z AUTO 00000KT 10SM OVC005 11/09 A3011 RMK AO2 RAE04B07E36 SLP195

KMKL 300442Z AUTO 00000KT 10SM OVC005 11/10 A3010 RMK AO2 RAE04B07E36 P0001

KMKL 300419Z AUTO VRB06G15KT 6SM -RA BR BKN003 OVC030 10/10 A3012 RMK AO2

KARG 300456Z AUTO 02013KT 5SM BR OVC005 02/02 A3019 RMK AO2 UPE25RAB25E35 CIG

KARG 300451Z AUTO 03012KT 4SM BR OVC005 02/02 A3018 RMK AO2 UPE25RAB25E35 CIG

KJBR 300453Z AUTO 03010KT 4SM -RA BR OVC006 02/02 A3018 RMK AO2 RAB20UPB37E39

KJBR 300449Z AUTO 03007KT 3SM -RA BR OVC006 03/02 A3018 RMK AO2 RAB20UPB37E39

KJBR 300429Z AUTO 02009KT 2SM -RA BR OVC005 03/02 A3020 RMK AO2 RAB20 P0000

KALN 300455Z AUTO 35008KT 4SM BR OVC006 M04/M05 A3030 RMK AO2 T10421047

KALN 300435Z AUTO 33006KT 4SM BR OVC006 M04/M05 A3030 RMK AO2 T10411046

KALN 300415Z AUTO 32004KT 4SM BR OVC006 M04/M04 A3031 RMK AO2 T10401045

KALN 300455Z AUTO 35008KT 4SM BR OVC006 M04/M05 A3030 RMK AO2 T10421047

KALN 300435Z AUTO 33006KT 4SM BR OVC006 M04/M05 A3030 RMK AO2 T10411046

KALN 300415Z AUTO 32004KT 4SM BR OVC006 M04/M04 A3031 RMK AO2 T10401045

KCOU 300511Z AUTO 01013KT 10SM OVC010 M07/M09 A3031 RMK AO2 CIG 008V014

KCOU 300454Z AUTO 01012KT 10SM M07/M09 A3032 RMK AO2 SLP280 T10721094 $

KCOU 300430Z 01010KT 10SM OVC010 M07/M09 A3033 RMK AO2 T10721094 $

KSPI 300449Z AUTO 35011KT 9SM UP BKN010 OVC023 M06/M08 A3031 RMK AO2

KSPI 300434Z AUTO 35007KT 10SM -SN BKN009 OVC023 M06/M08 A3031 RMK AO2

KAJG 300435Z AUTO 03007KT 10SM OVC010 02/01 A3022 RMK AO2 T00200008

KAJG 300415Z AUTO 03008KT 10SM OVC008 02/01 A3021 RMK AO2 T00200010

KM30 300455Z AUTO 36004KT 2SM BR OVC005 01/00 A3023 RMK AO2 T00060001

KM30 300435Z AUTO 36004KT 2SM BR OVC005 01/00 A3023 RMK AO2 T00060001

KM30 300415Z AUTO 01005KT 2 1/2SM BR OVC005 01/00 A3022 RMK AO2 T00070002

KDEC 300506Z AUTO 34012KT 9SM BKN010 BKN017 OVC030 M04/M06 A3027 RMK AO2

KDEC 300454Z AUTO 35010KT 10SM SCT010 OVC029 M04/M05 A3027 RMK AO2 SLP259

KIJX 300435Z AUTO 33009KT 5SM OVC007 M07/M07 A3033 RMK AO2 T10731073

KIJX 300415Z AUTO 33007KT 5SM OVC007 M07/M07 A3033 RMK AO2 T10701070


TAFS

KEVV 300313Z 3003/3024 01007KT 1 1/2SM -DZ BR OVC002

        FM301000 34009KT 3SM -FZDZ BR OVC003

        FM301600 34009KT P6SM OVC007

        FM302100 34009G17KT P6SM OVC015


Winds Aloft


Reports

No pilot reports found for area.



Area Forecast



Significant Weather

WAUS43 KKCI 300245 CHIZ WA 300245 AIRMET ZULU FOR ICE AND FRZLVL VALID UNTIL 300900 AIRMET ICE...SD NE KS IA MO WI LM LS MI LH IL IN KY FROM 50NW SSM TO 50NW YVV TO 40SSE ECK TO FWA TO 20WNW CVG TO 20NNW ARG TO OSW TO 50W LBL TO GLD TO 20SE BFF TO 20E DLL TO 50NW TVC TO 50NW SSM MOD ICE BTN FRZLVL AND 160. FRZLVL SFC-030. CONDS CONTG BYD 09Z THRU 15Z. FRZLVL...RANGING FROM SFC-110 ACRS AREA MULT FRZLVL BLW 110 BOUNDED BY 30S FWA-CVG-HNN-50E PXV-20SSE DYR-30NNE TXK-20ESE GGG-60NW IAH-20SW JCT-30WNW FST-INK- 30ESE TBE-50W LBL-30SSE LAA-20SW COU-30S FWA SFC ALG 20NW ARG-60WSW PXV-30S TTH-40WSW ROD 040 ALG 20N DYR-20SSE PXV-CVG 080 ALG 20NW BNA-30E BWG-50WSW BKW

WAUS43 KKCI 300245 CHIT WA 300245 AIRMET TANGO FOR TURB VALID UNTIL 300900 AIRMET TURB...MO LM MI LH IL IN KY AR TN MS AL FROM 30SE ECK TO FWA TO CVG TO HNN TO HMV TO GQO TO 30WSW ATL TO 20NE IGB TO 20S MEM TO 70SE SGF TO 40SSW UIN TO 20NNE ORD TO 30SE ECK MOD TURB BTN FL200 AND FL380. CONDS CONTG BYD 09Z ENDG BY 15Z. OTLK VALID 0900-1500Z...TURB MO IL IN KY OK TX AR TN LA MS AL BOUNDED BY 60S IND-30SSE CVG-HNN-HMV-30ENE VXV-50SW ACT-90S MRF- 20W ELP-INK-70SSW TXO-20WNW OKC-60S IND MOD TURB BTN FL180 AND FL320. CONDS CONTG THRU 15Z.

WAUS44 KKCI 300245 DFWT WA 300245 AIRMET TANGO FOR TURB AND LLWS VALID UNTIL 300900 AIRMET TURB...AR TN MS AL MO LM MI LH IL IN KY FROM 30SE ECK TO FWA TO CVG TO HNN TO HMV TO GQO TO 30WSW ATL TO 20NE IGB TO 20S MEM TO 70SE SGF TO 40SSW UIN TO 20NNE ORD TO 30SE ECK MOD TURB BTN FL200 AND FL380. CONDS CONTG BYD 09Z ENDG BY 15Z. LLWS POTENTIAL...LA MS AL AND CSTL WTRS BOUNDED BY 40N MGM-20SE LGC-50SW PZD-40W CEW-60SE SJI-30NNE HRV- 40SE MHZ-40N MGM LLWS EXP. LLWS POTENTIAL...OK TX BOUNDED BY 50W LBL-40WNW ABI-20S JCT-80SSE FST-60W INK-INK-30ESE TBE-50W LBL LLWS EXP. CONDS CONTG BYD 09Z THRU 15Z. OTLK VALID 0900-1500Z...TURB OK TX AR TN LA MS AL MO IL IN KY BOUNDED BY 60S IND-30SSE CVG-HNN-HMV-30ENE VXV-50SW ACT-90S MRF- 20W ELP-INK-70SSW TXO-20WNW OKC-60S IND MOD TURB BTN FL180 AND FL320. CONDS CONTG THRU 15Z.